Castle Airport Merced US
ICAO: KMER
IATA: MER
Category: Medium
Scheduled Services: No

Elevation: 191 ft
TransAlt. 18000 ft.

Airport Communications:
NORCAL APP/DEP:120.95
AWO 3:124.475
CTAF/UNICOM:123.075

KMER Zoom In..

Runways:

(A) RW 13 length 11802 ft width 150 ft
---- / hdg 126

(B) RW 31 length 11802 ft width 150 ft
ILS 109.50 / hdg 306

Location; KMER
Day. 19 / Time. 20.45 Zulu
* Altimeter: 30.04
* Temperature: 22° c. 71.6°f.
* Wind from: 330° Speed 15 kn with Gusts up to 21 kn.
Dewpoint: 03° c.
Visibility: 10 Statute Miles.
Clouds: Scattered 1000 ft.

KMER 192045Z 33015G21KT 10SM SCT100 22/03 A3004


Wind From 330°
Speed 15 kn.

  YouTube Music Video
 
jpsmedia.com for Web Design  worldairports.se 2018   terms of use